Norfolk, Massachusetts
Current Conditions -  °F | °C
As of 5:53 PM on Wednesday 22 Oct 2014 (Local Time) from KOWD Reporting Station
Moderate Rain Moderate Rain  
Wind Chill: 51°   Ceiling: 1000
Heat Index: 51°   Visibility: 2mi
Dew Point: 49°   Wind: 22mph
Humidity: 92%   Direction: 20°NNE
Pressure: 29.87"   Gusts: 37mph
Location:  42.12°N, 71.32°W
Report Text: KOWD 222153Z 02019G32KT 2SM RA BR OVC010 11/09 A2987 RMK AO2 PK WND 03037/2143 SLP113 P0007 T01060094
Loading
Personal Weather Stations






























Interactive Weather Map
Tropical Storm Tracking
New forecast layout! Learn more

10-Day Weather Forecast

Advertisements
Track Severe Weather on mobile